createdAt,value
2017-11-28T00:00:46.277Z,0
2017-11-28T00:01:46.306Z,0
2017-11-28T00:02:46.312Z,0
2017-11-28T00:03:46.840Z,0
2017-11-28T00:04:46.649Z,0
2017-11-28T00:05:46.633Z,0
2017-11-28T00:06:46.637Z,0
2017-11-28T00:07:46.907Z,0
2017-11-28T00:08:46.661Z,0
2017-11-28T00:09:46.955Z,0
2017-11-28T00:10:46.698Z,0
2017-11-28T00:11:46.488Z,0
2017-11-28T00:12:46.723Z,0
2017-11-28T00:13:46.998Z,0
2017-11-28T00:14:46.758Z,0
2017-11-28T00:15:46.518Z,0
2017-11-28T00:16:46.785Z,0
2017-11-28T00:17:46.286Z,0
2017-11-28T00:18:46.555Z,0
2017-11-28T00:19:46.573Z,0
2017-11-28T00:20:46.883Z,0
2017-11-28T00:21:47.177Z,0
2017-11-28T00:22:46.633Z,0
2017-11-28T00:23:47.156Z,0
2017-11-28T00:24:46.649Z,0
2017-11-28T00:25:46.687Z,0
2017-11-28T00:26:47.208Z,0
2017-11-28T00:27:46.960Z,0
2017-11-28T00:28:47.244Z,0
2017-11-28T00:29:46.737Z,0
2017-11-28T00:30:47.010Z,0
2017-11-28T00:31:46.762Z,0
2017-11-28T00:32:46.775Z,0
2017-11-28T00:33:47.074Z,0
2017-11-28T00:34:46.807Z,0
2017-11-28T00:35:46.836Z,0
2017-11-28T00:36:46.832Z,0
2017-11-28T00:37:47.366Z,0
2017-11-28T00:38:47.435Z,0
2017-11-28T00:39:47.170Z,0
2017-11-28T00:40:47.170Z,0
2017-11-28T00:41:47.436Z,0
2017-11-28T00:42:47.445Z,0
2017-11-28T00:43:47.209Z,0
2017-11-28T00:44:46.964Z,0
2017-11-28T00:45:47.487Z,0
2017-11-28T00:46:47.517Z,0
2017-11-28T00:47:46.745Z,0
2017-11-28T00:48:47.273Z,0
2017-11-28T00:49:47.038Z,0
2017-11-28T00:50:47.300Z,0
2017-11-28T00:51:47.322Z,0
2017-11-28T00:52:47.083Z,0
2017-11-28T00:53:47.085Z,0
2017-11-28T00:54:47.158Z,0
2017-11-28T00:55:47.124Z,0
2017-11-28T00:56:47.652Z,0
2017-11-28T00:57:47.150Z,0
2017-11-28T00:58:47.424Z,0
2017-11-28T00:59:47.440Z,0
2017-11-28T01:00:47.194Z,0
2017-11-28T01:01:47.473Z,0
2017-11-28T01:02:47.750Z,0
2017-11-28T01:03:47.495Z,0
2017-11-28T01:04:47.520Z,0
2017-11-28T01:05:47.282Z,0
2017-11-28T01:06:47.795Z,0
2017-11-28T01:07:47.836Z,0
2017-11-28T01:08:47.588Z,0
2017-11-28T01:09:47.395Z,0
2017-11-28T01:10:47.893Z,0
2017-11-28T01:11:47.363Z,0
2017-11-28T01:12:47.118Z,0
2017-11-28T01:13:47.911Z,0
2017-11-28T01:14:47.935Z,0
2017-11-28T01:15:47.678Z,0
2017-11-28T01:16:47.715Z,0
2017-11-28T01:17:47.464Z,0
2017-11-28T01:18:47.996Z,0
2017-11-28T01:19:47.748Z,0
2017-11-28T01:20:48.027Z,0
2017-11-28T01:21:47.509Z,0
2017-11-28T01:22:48.043Z,0
2017-11-28T01:23:47.803Z,0
2017-11-28T01:24:47.820Z,0
2017-11-28T01:25:47.835Z,0
2017-11-28T01:26:47.844Z,0
2017-11-28T01:27:48.189Z,0
2017-11-28T01:28:47.902Z,0
2017-11-28T01:29:48.154Z,0
2017-11-28T01:30:47.905Z,0
2017-11-28T01:31:48.187Z,0
2017-11-28T01:32:48.197Z,0
2017-11-28T01:33:48.205Z,0
2017-11-28T01:34:47.969Z,0
2017-11-28T01:35:48.240Z,0
2017-11-28T01:36:48.260Z,0
2017-11-28T01:37:48.268Z,0
2017-11-28T01:38:48.285Z,0
2017-11-28T01:39:48.318Z,0
2017-11-28T01:40:48.057Z,0
2017-11-28T01:41:48.340Z,0
2017-11-28T01:42:48.412Z,0
2017-11-28T01:43:48.367Z,0
2017-11-28T01:44:48.122Z,0
2017-11-28T01:45:47.887Z,0
2017-11-28T01:46:48.158Z,0
2017-11-28T01:47:48.422Z,0
2017-11-28T01:48:48.179Z,0
2017-11-28T01:49:48.664Z,0
2017-11-28T01:50:48.209Z,0
2017-11-28T01:51:47.966Z,0
2017-11-28T01:52:48.249Z,0
2017-11-28T01:53:48.261Z,0
2017-11-28T01:54:48.278Z,0
2017-11-28T01:55:48.039Z,0
2017-11-28T01:56:48.317Z,0
2017-11-28T01:57:48.741Z,0
2017-11-28T01:58:48.076Z,0
2017-11-28T01:59:48.099Z,0
2017-11-28T02:00:48.618Z,0
2017-11-28T02:01:48.659Z,0
2017-11-28T02:02:48.650Z,0
2017-11-28T02:03:48.684Z,0
2017-11-28T02:04:48.423Z,0
2017-11-28T02:05:48.462Z,0
2017-11-28T02:06:48.453Z,0
2017-11-28T02:07:48.538Z,0
2017-11-28T02:08:48.749Z,0
2017-11-28T02:09:48.760Z,0
2017-11-28T02:10:48.522Z,0
2017-11-28T02:11:48.831Z,0
2017-11-28T02:12:48.856Z,0
2017-11-28T02:13:48.058Z,0
2017-11-28T02:14:48.601Z,0
2017-11-28T02:15:48.360Z,0
2017-11-28T02:16:48.619Z,0
2017-11-28T02:17:48.899Z,0
2017-11-28T02:18:48.913Z,0
2017-11-28T02:19:48.661Z,0
2017-11-28T02:20:48.939Z,0
2017-11-28T02:21:48.451Z,0
2017-11-28T02:22:48.453Z,0
2017-11-28T02:23:48.721Z,0
2017-11-28T02:24:48.487Z,0
2017-11-28T02:25:48.497Z,0
2017-11-28T02:26:48.774Z,0
2017-11-28T02:27:48.523Z,0
2017-11-28T02:28:49.057Z,0
2017-11-28T02:29:49.137Z,0
2017-11-28T02:30:48.889Z,0
2017-11-28T02:31:48.601Z,0
2017-11-28T02:32:49.144Z,0
2017-11-28T02:33:48.890Z,0
2017-11-28T02:34:49.154Z,0
2017-11-28T02:35:48.907Z,0
2017-11-28T02:36:48.934Z,0
2017-11-28T02:37:48.706Z,0
2017-11-28T02:38:48.966Z,0
2017-11-28T02:39:48.483Z,0
2017-11-28T02:40:48.861Z,0
2017-11-28T02:41:49.007Z,0
2017-11-28T02:42:49.090Z,0
2017-11-28T02:43:48.528Z,0
2017-11-28T02:44:48.861Z,0
2017-11-28T02:45:49.372Z,0
2017-11-28T02:46:49.351Z,0
2017-11-28T02:47:48.868Z,0
2017-11-28T02:48:49.116Z,0
2017-11-28T02:49:49.397Z,0
2017-11-28T02:50:49.407Z,0
2017-11-28T02:51:48.926Z,0
2017-11-28T02:52:49.187Z,0
2017-11-28T02:53:49.203Z,0
2017-11-28T02:54:48.964Z,0
2017-11-28T02:55:49.235Z,0
2017-11-28T02:56:49.503Z,0
2017-11-28T02:57:49.260Z,0
2017-11-28T02:58:49.013Z,0
2017-11-28T02:59:49.288Z,0
2017-11-28T03:00:49.565Z,0
2017-11-28T03:01:49.328Z,0
2017-11-28T03:02:49.340Z,0
2017-11-28T03:03:49.367Z,0
2017-11-28T03:04:48.854Z,0
2017-11-28T03:05:49.391Z,0
2017-11-28T03:06:49.666Z,0
2017-11-28T03:07:49.434Z,0
2017-11-28T03:08:49.707Z,0
2017-11-28T03:09:49.708Z,0
2017-11-28T03:10:49.738Z,0
2017-11-28T03:11:49.488Z,0
2017-11-28T03:12:49.242Z,0
2017-11-28T03:13:49.509Z,0
2017-11-28T03:14:49.794Z,0
2017-11-28T03:15:49.544Z,0
2017-11-28T03:16:49.562Z,0
2017-11-28T03:17:49.366Z,0
2017-11-28T03:18:49.601Z,0
2017-11-28T03:19:49.607Z,0
2017-11-28T03:20:49.634Z,0
2017-11-28T03:21:49.902Z,0
2017-11-28T03:22:49.391Z,0
2017-11-28T03:23:49.407Z,0
2017-11-28T03:24:49.450Z,0
2017-11-28T03:25:49.962Z,0
2017-11-28T03:26:49.989Z,0
2017-11-28T03:27:49.989Z,0
2017-11-28T03:28:49.753Z,0
2017-11-28T03:29:49.776Z,0
2017-11-28T03:30:50.060Z,0
2017-11-28T03:31:49.798Z,0
2017-11-28T03:32:49.295Z,0
2017-11-28T03:33:50.089Z,0
2017-11-28T03:34:49.587Z,0
2017-11-28T03:35:49.773Z,0
2017-11-28T03:36:49.874Z,0
2017-11-28T03:37:49.896Z,0
2017-11-28T03:38:49.916Z,0
2017-11-28T03:39:50.183Z,0
2017-11-28T03:40:49.934Z,0
2017-11-28T03:41:49.964Z,0
2017-11-28T03:42:49.965Z,0
2017-11-28T03:43:49.991Z,0
2017-11-28T03:44:50.265Z,0
2017-11-28T03:45:50.279Z,0
2017-11-28T03:46:49.773Z,0
2017-11-28T03:47:50.323Z,0
2017-11-28T03:48:50.065Z,0
2017-11-28T03:49:50.082Z,0
2017-11-28T03:50:50.116Z,0
2017-11-28T03:51:49.852Z,0
2017-11-28T03:52:50.127Z,0
2017-11-28T03:53:50.409Z,0
2017-11-28T03:54:50.160Z,0
2017-11-28T03:55:50.218Z,0
2017-11-28T03:56:50.205Z,0
2017-11-28T03:57:49.953Z,0
2017-11-28T03:58:50.224Z,0
2017-11-28T03:59:50.502Z,0
2017-11-28T04:00:50.518Z,0
2017-11-28T04:01:50.013Z,0
2017-11-28T04:02:50.031Z,0
2017-11-28T04:03:50.303Z,0
2017-11-28T04:04:50.089Z,0
2017-11-28T04:05:50.609Z,0
2017-11-28T04:06:50.645Z,0
2017-11-28T04:07:50.113Z,0
2017-11-28T04:08:50.442Z,0
2017-11-28T04:09:50.651Z,0
2017-11-28T04:10:50.168Z,0
2017-11-28T04:11:50.431Z,0
2017-11-28T04:12:50.456Z,0
2017-11-28T04:13:50.463Z,0
2017-11-28T04:14:50.734Z,0
2017-11-28T04:15:50.750Z,0
2017-11-28T04:16:50.255Z,0
2017-11-28T04:17:50.787Z,0
2017-11-28T04:18:50.559Z,0
2017-11-28T04:19:50.570Z,0
2017-11-28T04:20:50.055Z,0
2017-11-28T04:21:50.585Z,0
2017-11-28T04:22:50.864Z,0
2017-11-28T04:23:50.952Z,0
2017-11-28T04:24:50.647Z,0
2017-11-28T04:25:50.393Z,0
2017-11-28T04:26:50.941Z,0
2017-11-28T04:27:50.686Z,0
2017-11-28T04:28:50.954Z,0
2017-11-28T04:29:50.715Z,0
2017-11-28T04:30:50.468Z,0
2017-11-28T04:31:50.489Z,0
2017-11-28T04:32:51.022Z,0
2017-11-28T04:33:50.771Z,0
2017-11-28T04:34:51.054Z,0
2017-11-28T04:35:50.801Z,0
2017-11-28T04:36:50.821Z,0
2017-11-28T04:37:50.834Z,0
2017-11-28T04:38:51.153Z,0
2017-11-28T04:39:51.130Z,0
2017-11-28T04:40:50.888Z,0
2017-11-28T04:41:50.909Z,0
2017-11-28T04:42:51.169Z,0
2017-11-28T04:43:50.932Z,0
2017-11-28T04:44:50.692Z,0
2017-11-28T04:45:50.972Z,0
2017-11-28T04:46:51.241Z,0
2017-11-28T04:47:50.992Z,0
2017-11-28T04:48:50.752Z,0
2017-11-28T04:49:51.031Z,0
2017-11-28T04:50:51.063Z,0
2017-11-28T04:51:51.108Z,0
2017-11-28T04:52:50.834Z,0
2017-11-28T04:53:51.349Z,0
2017-11-28T04:54:50.859Z,0
2017-11-28T04:55:51.128Z,0
2017-11-28T04:56:51.170Z,0
2017-11-28T04:57:51.478Z,0
2017-11-28T04:58:51.169Z,0
2017-11-28T04:59:51.188Z,0
2017-11-28T05:00:51.467Z,0
2017-11-28T05:01:51.219Z,0
2017-11-28T05:02:51.239Z,0
2017-11-28T05:03:51.247Z,0
2017-11-28T05:04:51.264Z,0
2017-11-28T05:05:51.023Z,0
2017-11-28T05:06:51.302Z,0
2017-11-28T05:07:51.317Z,0
2017-11-28T05:08:51.077Z,0
2017-11-28T05:09:51.337Z,0
2017-11-28T05:10:51.353Z,0
2017-11-28T05:11:51.630Z,0
2017-11-28T05:12:51.412Z,0
2017-11-28T05:13:51.412Z,0
2017-11-28T05:14:51.671Z,0
2017-11-28T05:15:51.742Z,0
2017-11-28T05:16:51.492Z,0
2017-11-28T05:17:51.776Z,0
2017-11-28T05:18:51.507Z,0
2017-11-28T05:19:51.759Z,0
2017-11-28T05:20:51.762Z,0
2017-11-28T05:21:51.532Z,0
2017-11-28T05:22:51.539Z,0
2017-11-28T05:23:51.553Z,0
2017-11-28T05:24:51.562Z,0
2017-11-28T05:25:51.583Z,0
2017-11-28T05:26:51.619Z,0
2017-11-28T05:27:51.639Z,0
2017-11-28T05:28:51.640Z,0
2017-11-28T05:29:51.644Z,0
2017-11-28T05:30:51.712Z,0
2017-11-28T05:31:51.941Z,0
2017-11-28T05:32:51.685Z,0
2017-11-28T05:33:51.723Z,0
2017-11-28T05:34:51.993Z,0
2017-11-28T05:35:50.963Z,0
2017-11-28T05:36:51.755Z,0
2017-11-28T05:37:52.022Z,0
2017-11-28T05:38:51.527Z,0
2017-11-28T05:39:51.805Z,0
2017-11-28T05:40:51.827Z,0
2017-11-28T05:41:51.851Z,0
2017-11-28T05:42:51.578Z,0
2017-11-28T05:43:52.137Z,0
2017-11-28T05:44:52.139Z,0
2017-11-28T05:45:51.908Z,0
2017-11-28T05:46:51.906Z,0
2017-11-28T05:47:51.916Z,0
2017-11-28T05:48:51.926Z,0
2017-11-28T05:49:51.951Z,0
2017-11-28T05:50:51.505Z,0
2017-11-28T05:51:52.245Z,0
2017-11-28T05:52:52.030Z,0
2017-11-28T05:53:51.491Z,0
2017-11-28T05:54:52.279Z,0
2017-11-28T05:55:52.046Z,0
2017-11-28T05:56:52.049Z,0
2017-11-28T05:57:51.554Z,0
2017-11-28T05:58:52.366Z,0
2017-11-28T05:59:52.099Z,0
2017-11-28T06:00:52.118Z,0
2017-11-28T06:01:52.384Z,0
2017-11-28T06:02:52.400Z,0
2017-11-28T06:03:51.901Z,0
2017-11-28T06:04:52.176Z,0
2017-11-28T06:05:52.192Z,0
2017-11-28T06:06:52.209Z,0
2017-11-28T06:07:52.532Z,0
2017-11-28T06:08:52.243Z,0
2017-11-28T06:09:52.283Z,0
2017-11-28T06:10:52.007Z,0
2017-11-28T06:11:52.284Z,0
2017-11-28T06:12:52.056Z,0
2017-11-28T06:13:51.800Z,0
2017-11-28T06:14:52.338Z,0
2017-11-28T06:15:52.383Z,0
2017-11-28T06:16:52.360Z,0
2017-11-28T06:17:52.396Z,0
2017-11-28T06:18:52.648Z,0
2017-11-28T06:19:52.173Z,0
2017-11-28T06:20:52.173Z,0
2017-11-28T06:21:52.442Z,0
2017-11-28T06:22:52.755Z,0
2017-11-28T06:23:52.228Z,0
2017-11-28T06:24:52.478Z,0
2017-11-28T06:25:52.246Z,0
2017-11-28T06:26:52.523Z,0
2017-11-28T06:27:52.526Z,0
2017-11-28T06:28:52.277Z,0
2017-11-28T06:29:52.291Z,0
2017-11-28T06:30:52.307Z,0
2017-11-28T06:31:52.850Z,0
2017-11-28T06:32:52.612Z,0
2017-11-28T06:33:52.899Z,0
2017-11-28T06:34:52.628Z,0
2017-11-28T06:35:52.389Z,0
2017-11-28T06:36:52.661Z,0
2017-11-28T06:37:52.722Z,0
2017-11-28T06:38:52.697Z,5
2017-11-28T06:39:52.968Z,5
2017-11-28T06:40:52.987Z,5
2017-11-28T06:41:52.994Z,5
2017-11-28T06:42:52.499Z,5
2017-11-28T06:43:53.032Z,5
2017-11-28T06:44:53.053Z,5
2017-11-28T06:45:52.812Z,5
2017-11-28T06:46:52.814Z,5
2017-11-28T06:47:52.824Z,10
2017-11-28T06:48:52.858Z,10
2017-11-28T06:49:53.119Z,10
2017-11-28T06:50:52.608Z,10
2017-11-28T06:51:52.903Z,10
2017-11-28T06:52:52.943Z,10
2017-11-28T06:53:52.921Z,15
2017-11-28T06:54:52.953Z,15
2017-11-28T06:55:53.013Z,15
2017-11-28T06:56:52.960Z,15
2017-11-28T06:57:53.075Z,20
2017-11-28T06:58:53.265Z,20
2017-11-28T06:59:53.012Z,20
2017-11-28T07:00:53.047Z,25
2017-11-28T07:01:53.031Z,25
2017-11-28T07:02:53.304Z,25
2017-11-28T07:03:52.803Z,30
2017-11-28T07:04:53.079Z,30
2017-11-28T07:05:53.102Z,30
2017-11-28T07:06:53.114Z,35
2017-11-28T07:07:53.131Z,35
2017-11-28T07:08:53.143Z,35
2017-11-28T07:09:52.895Z,40
2017-11-28T07:10:53.480Z,40
2017-11-28T07:11:52.928Z,40
2017-11-28T07:12:53.195Z,45
2017-11-28T07:13:53.220Z,45
2017-11-28T07:14:53.507Z,45
2017-11-28T07:15:53.247Z,45
2017-11-28T07:16:53.268Z,50
2017-11-28T07:17:53.284Z,50
2017-11-28T07:18:53.293Z,50
2017-11-28T07:19:53.039Z,55
2017-11-28T07:20:53.056Z,55
2017-11-28T07:21:53.585Z,55
2017-11-28T07:22:53.617Z,60
2017-11-28T07:23:53.370Z,60
2017-11-28T07:24:53.372Z,60
2017-11-28T07:25:53.394Z,65
2017-11-28T07:26:53.451Z,65
2017-11-28T07:27:53.695Z,65
2017-11-28T07:28:53.693Z,65
2017-11-28T07:29:53.733Z,65
2017-11-28T07:30:53.484Z,70
2017-11-28T07:31:53.757Z,70
2017-11-28T07:32:53.534Z,75
2017-11-28T07:33:53.255Z,75
2017-11-28T07:34:53.767Z,80
2017-11-28T07:35:52.740Z,80
2017-11-28T07:36:53.012Z,80
2017-11-28T07:37:53.797Z,80
2017-11-28T07:38:53.592Z,85
2017-11-28T07:39:53.614Z,85
2017-11-28T07:40:53.623Z,85
2017-11-28T07:41:53.379Z,85
2017-11-28T07:42:53.404Z,85
2017-11-28T07:43:53.668Z,90
2017-11-28T07:44:53.682Z,90
2017-11-28T07:45:53.733Z,90
2017-11-28T07:46:53.704Z,90
2017-11-28T07:47:53.722Z,90
2017-11-28T07:48:53.482Z,95
2017-11-28T07:49:54.042Z,95
2017-11-28T07:50:53.512Z,95
2017-11-28T07:51:53.814Z,100
2017-11-28T07:52:54.059Z,100
2017-11-28T07:53:54.077Z,105
2017-11-28T07:54:54.113Z,105
2017-11-28T07:55:53.342Z,110
2017-11-28T07:56:53.627Z,115
2017-11-28T07:57:54.210Z,115
2017-11-28T07:58:54.183Z,115
2017-11-28T07:59:54.186Z,115
2017-11-28T08:00:54.183Z,115
2017-11-28T08:01:54.204Z,115
2017-11-28T08:02:54.211Z,120
2017-11-28T08:03:53.970Z,125
2017-11-28T08:04:54.247Z,125
2017-11-28T08:05:54.008Z,130
2017-11-28T08:06:53.758Z,130
2017-11-28T08:07:54.407Z,130
2017-11-28T08:08:54.051Z,130
2017-11-28T08:09:54.328Z,140
2017-11-28T08:10:54.076Z,135
2017-11-28T08:11:54.371Z,135
2017-11-28T08:12:53.922Z,130
2017-11-28T08:13:53.875Z,130
2017-11-28T08:14:54.403Z,135
2017-11-28T08:15:53.914Z,135
2017-11-28T08:16:54.171Z,135
2017-11-28T08:17:54.199Z,135
2017-11-28T08:18:54.226Z,140
2017-11-28T08:19:53.972Z,140
2017-11-28T08:20:53.983Z,140
2017-11-28T08:21:54.257Z,140
2017-11-28T08:22:54.532Z,140
2017-11-28T08:23:54.296Z,140
2017-11-28T08:24:54.043Z,145
2017-11-28T08:25:54.329Z,145
2017-11-28T08:26:54.333Z,145
2017-11-28T08:27:54.709Z,140
2017-11-28T08:28:54.646Z,150
2017-11-28T08:29:54.389Z,150
2017-11-28T08:30:54.414Z,150
2017-11-28T08:31:54.433Z,150
2017-11-28T08:32:54.498Z,150
2017-11-28T08:33:54.488Z,150
2017-11-28T08:34:54.215Z,150
2017-11-28T08:35:54.499Z,150
2017-11-28T08:36:54.510Z,150
2017-11-28T08:37:54.524Z,155
2017-11-28T08:38:54.282Z,155
2017-11-28T08:39:54.551Z,160
2017-11-28T08:40:54.569Z,160
2017-11-28T08:41:54.841Z,160
2017-11-28T08:42:54.345Z,165
2017-11-28T08:43:55.872Z,165
2017-11-28T08:44:54.384Z,165
2017-11-28T08:45:54.653Z,170
2017-11-28T08:46:54.920Z,170
2017-11-28T08:47:54.943Z,170
2017-11-28T08:48:54.949Z,170
2017-11-28T08:49:54.983Z,170
2017-11-28T08:50:54.740Z,170
2017-11-28T08:51:54.229Z,175
2017-11-28T08:52:54.532Z,180
2017-11-28T08:53:55.042Z,185
2017-11-28T08:54:54.536Z,185
2017-11-28T08:55:55.093Z,185
2017-11-28T08:56:55.091Z,185
2017-11-28T08:57:54.605Z,190
2017-11-28T08:58:54.968Z,180
2017-11-28T08:59:54.629Z,180
2017-11-28T09:00:55.163Z,175
2017-11-28T09:01:54.659Z,170
2017-11-28T09:02:54.939Z,170
2017-11-28T09:03:54.703Z,175
2017-11-28T09:04:54.715Z,175
2017-11-28T09:05:55.267Z,175
2017-11-28T09:06:55.265Z,170
2017-11-28T09:07:55.290Z,175
2017-11-28T09:08:55.292Z,180
2017-11-28T09:09:55.306Z,185
2017-11-28T09:10:55.062Z,185
2017-11-28T09:11:55.082Z,185
2017-11-28T09:12:54.843Z,190
2017-11-28T09:13:55.393Z,185
2017-11-28T09:14:55.377Z,175
2017-11-28T09:15:55.405Z,170
2017-11-28T09:16:55.204Z,165
2017-11-28T09:17:54.944Z,165
2017-11-28T09:18:55.218Z,160
2017-11-28T09:19:55.226Z,160
2017-11-28T09:20:55.227Z,160
2017-11-28T09:21:55.247Z,160
2017-11-28T09:22:54.752Z,170
2017-11-28T09:23:55.024Z,170
2017-11-28T09:24:55.563Z,180
2017-11-28T09:25:55.576Z,190
2017-11-28T09:26:55.432Z,195
2017-11-28T09:27:55.362Z,205
2017-11-28T09:28:55.628Z,215
2017-11-28T09:29:55.389Z,230
2017-11-28T09:30:55.662Z,245
2017-11-28T09:31:55.464Z,255
2017-11-28T09:32:55.441Z,260
2017-11-28T09:33:55.457Z,260
2017-11-28T09:34:55.475Z,270
2017-11-28T09:35:55.488Z,270
2017-11-28T09:36:55.247Z,260
2017-11-28T09:37:55.793Z,245
2017-11-28T09:38:55.539Z,235
2017-11-28T09:39:55.562Z,240
2017-11-28T09:40:55.616Z,240
2017-11-28T09:41:55.621Z,250
2017-11-28T09:42:55.612Z,255
2017-11-28T09:43:55.667Z,260
2017-11-28T09:44:55.391Z,260
2017-11-28T09:45:55.409Z,260
2017-11-28T09:46:55.733Z,260
2017-11-28T09:47:55.180Z,260
2017-11-28T09:48:55.200Z,265
2017-11-28T09:49:55.738Z,265
2017-11-28T09:50:55.769Z,265
2017-11-28T09:51:55.781Z,265
2017-11-28T09:52:55.798Z,270
2017-11-28T09:53:56.103Z,280
2017-11-28T09:54:55.569Z,300
2017-11-28T09:55:55.320Z,310
2017-11-28T09:56:55.344Z,305
2017-11-28T09:57:55.880Z,325
2017-11-28T09:58:56.165Z,315
2017-11-28T09:59:56.177Z,300
2017-11-28T10:00:56.200Z,305
2017-11-28T10:01:55.950Z,305
2017-11-28T10:02:56.222Z,310
2017-11-28T10:03:56.246Z,310
2017-11-28T10:04:55.997Z,315
2017-11-28T10:05:56.270Z,305
2017-11-28T10:06:56.304Z,300
2017-11-28T10:07:55.806Z,300
2017-11-28T10:08:56.336Z,300
2017-11-28T10:09:56.366Z,305
2017-11-28T10:10:55.590Z,300
2017-11-28T10:11:56.400Z,300
2017-11-28T10:12:56.410Z,300
2017-11-28T10:13:56.160Z,300
2017-11-28T10:14:56.181Z,305
2017-11-28T10:15:56.451Z,310
2017-11-28T10:16:56.479Z,305
2017-11-28T10:17:55.766Z,300
2017-11-28T10:18:56.504Z,285
2017-11-28T10:19:56.569Z,265
2017-11-28T10:20:56.291Z,250
2017-11-28T10:21:56.308Z,235
2017-11-28T10:22:56.318Z,230
2017-11-28T10:23:56.598Z,225
2017-11-28T10:24:56.103Z,230
2017-11-28T10:25:56.633Z,230
2017-11-28T10:26:56.643Z,220
2017-11-28T10:27:56.669Z,210
2017-11-28T10:28:56.685Z,200
2017-11-28T10:29:56.184Z,190
2017-11-28T10:30:56.463Z,195
2017-11-28T10:31:56.479Z,180
2017-11-28T10:32:56.820Z,170
2017-11-28T10:33:56.775Z,165
2017-11-28T10:34:56.531Z,175
2017-11-28T10:35:56.549Z,190
2017-11-28T10:36:56.573Z,195
2017-11-28T10:37:56.845Z,200
2017-11-28T10:38:56.867Z,200
2017-11-28T10:39:56.885Z,205
2017-11-28T10:40:56.659Z,195
2017-11-28T10:41:56.650Z,210
2017-11-28T10:42:56.785Z,220
2017-11-28T10:43:56.705Z,230
2017-11-28T10:44:56.966Z,225
2017-11-28T10:45:56.977Z,210
2017-11-28T10:46:56.766Z,200
2017-11-28T10:47:56.809Z,200
2017-11-28T10:48:56.524Z,205
2017-11-28T10:49:56.276Z,200
2017-11-28T10:50:56.808Z,200
2017-11-28T10:51:56.571Z,210
2017-11-28T10:52:57.102Z,220
2017-11-28T10:53:57.122Z,225
2017-11-28T10:54:57.147Z,215
2017-11-28T10:55:57.160Z,205
2017-11-28T10:56:56.394Z,200
2017-11-28T10:57:57.203Z,190
2017-11-28T10:58:56.965Z,185
2017-11-28T10:59:57.231Z,180
2017-11-28T11:00:57.014Z,160
2017-11-28T11:01:57.006Z,140
2017-11-28T11:02:56.701Z,145
2017-11-28T11:03:57.030Z,150
2017-11-28T11:04:57.092Z,140
2017-11-28T11:05:57.077Z,140
2017-11-28T11:06:56.830Z,140
2017-11-28T11:07:57.363Z,155
2017-11-28T11:08:57.377Z,170
2017-11-28T11:09:57.141Z,185
2017-11-28T11:10:56.898Z,190
2017-11-28T11:11:57.421Z,210
2017-11-28T11:12:56.935Z,240
2017-11-28T11:13:56.955Z,245
2017-11-28T11:14:57.476Z,235
2017-11-28T11:15:56.984Z,210
2017-11-28T11:16:56.996Z,205
2017-11-28T11:17:57.279Z,210
2017-11-28T11:18:57.284Z,190
2017-11-28T11:19:57.302Z,155
2017-11-28T11:20:57.062Z,140
2017-11-28T11:21:56.866Z,135
2017-11-28T11:22:57.344Z,130
2017-11-28T11:23:57.105Z,125
2017-11-28T11:24:57.645Z,130
2017-11-28T11:25:57.668Z,140
2017-11-28T11:26:57.168Z,145
2017-11-28T11:27:57.447Z,140
2017-11-28T11:28:57.198Z,130
2017-11-28T11:29:57.487Z,115
2017-11-28T11:30:57.761Z,115
2017-11-28T11:31:57.513Z,125
2017-11-28T11:32:57.834Z,130
2017-11-28T11:33:57.563Z,140
2017-11-28T11:34:57.818Z,145
2017-11-28T11:35:57.328Z,150
2017-11-28T11:36:57.395Z,155
2017-11-28T11:37:57.102Z,160
2017-11-28T11:38:57.634Z,155
2017-11-28T11:39:57.396Z,150
2017-11-28T11:40:57.413Z,140
2017-11-28T11:41:57.684Z,130
2017-11-28T11:42:57.737Z,125
2017-11-28T11:43:57.457Z,130
2017-11-28T11:44:57.475Z,140
2017-11-28T11:45:57.488Z,145
2017-11-28T11:46:58.076Z,155
2017-11-28T11:47:58.042Z,165
2017-11-28T11:48:57.302Z,155
2017-11-28T11:49:57.815Z,160
2017-11-28T11:50:57.573Z,165
2017-11-28T11:51:57.916Z,170
2017-11-28T11:52:57.611Z,175
2017-11-28T11:53:57.626Z,170
2017-11-28T11:54:57.904Z,170
2017-11-28T11:55:58.179Z,165
2017-11-28T11:56:58.193Z,165
2017-11-28T11:57:57.967Z,165
2017-11-28T11:58:57.723Z,165
2017-11-28T11:59:58.247Z,165
2017-11-28T12:00:58.030Z,165
2017-11-28T12:01:58.023Z,160
2017-11-28T12:02:58.033Z,165
2017-11-28T12:03:57.799Z,160
2017-11-28T12:04:58.330Z,155
2017-11-28T12:05:58.343Z,150
2017-11-28T12:06:58.373Z,135
2017-11-28T12:07:58.119Z,125
2017-11-28T12:08:58.436Z,125
2017-11-28T12:09:58.427Z,130
2017-11-28T12:10:57.928Z,130
2017-11-28T12:11:58.180Z,125
2017-11-28T12:12:58.219Z,120
2017-11-28T12:13:58.472Z,115
2017-11-28T12:14:57.714Z,115
2017-11-28T12:15:58.514Z,120
2017-11-28T12:16:58.559Z,120
2017-11-28T12:17:58.283Z,115
2017-11-28T12:18:58.321Z,100
2017-11-28T12:19:58.319Z,95
2017-11-28T12:20:58.337Z,100
2017-11-28T12:21:58.599Z,110
2017-11-28T12:22:58.663Z,125
2017-11-28T12:23:58.437Z,125
2017-11-28T12:24:58.658Z,120
2017-11-28T12:25:58.414Z,125
2017-11-28T12:26:58.725Z,125
2017-11-28T12:27:58.484Z,120
2017-11-28T12:28:58.466Z,120
2017-11-28T12:29:58.481Z,115
2017-11-28T12:30:58.247Z,115
2017-11-28T12:31:58.792Z,105
2017-11-28T12:32:58.531Z,100
2017-11-28T12:33:58.551Z,95
2017-11-28T12:34:58.834Z,100
2017-11-28T12:35:58.850Z,100
2017-11-28T12:36:58.599Z,100
2017-11-28T12:37:58.864Z,100
2017-11-28T12:38:58.639Z,105
2017-11-28T12:39:58.923Z,105
2017-11-28T12:40:58.671Z,110
2017-11-28T12:41:58.939Z,120
2017-11-28T12:42:58.977Z,120
2017-11-28T12:43:58.987Z,110
2017-11-28T12:44:58.731Z,110
2017-11-28T12:45:58.490Z,105
2017-11-28T12:46:58.527Z,100
2017-11-28T12:47:59.042Z,100
2017-11-28T12:48:58.794Z,100
2017-11-28T12:49:59.076Z,100
2017-11-28T12:50:59.096Z,100
2017-11-28T12:51:59.101Z,100
2017-11-28T12:52:59.131Z,105
2017-11-28T12:53:58.883Z,110
2017-11-28T12:54:58.903Z,105
2017-11-28T12:55:58.916Z,105
2017-11-28T12:56:58.426Z,105
2017-11-28T12:57:58.996Z,100
2017-11-28T12:58:59.224Z,95
2017-11-28T12:59:59.240Z,95
2017-11-28T13:00:58.745Z,90
2017-11-28T13:01:59.013Z,90
2017-11-28T13:02:59.285Z,85
2017-11-28T13:03:59.262Z,80
2017-11-28T13:04:59.063Z,75
2017-11-28T13:05:59.087Z,70
2017-11-28T13:06:59.105Z,70
2017-11-28T13:07:59.139Z,75
2017-11-28T13:08:59.391Z,75
2017-11-28T13:09:58.903Z,75
2017-11-28T13:10:58.918Z,70
2017-11-28T13:11:59.467Z,70
2017-11-28T13:12:58.989Z,70
2017-11-28T13:13:59.225Z,70
2017-11-28T13:14:59.256Z,70
2017-11-28T13:15:59.007Z,70
2017-11-28T13:16:59.528Z,70
2017-11-28T13:17:59.594Z,70
2017-11-28T13:18:59.556Z,70
2017-11-28T13:19:59.327Z,70
2017-11-28T13:20:59.599Z,70
2017-11-28T13:21:59.628Z,70
2017-11-28T13:22:59.372Z,65
2017-11-28T13:23:59.659Z,65
2017-11-28T13:24:59.156Z,65
2017-11-28T13:25:59.420Z,65
2017-11-28T13:26:59.710Z,70
2017-11-28T13:27:59.711Z,70
2017-11-28T13:28:59.534Z,70
2017-11-28T13:29:59.492Z,70
2017-11-28T13:30:59.522Z,70
2017-11-28T13:31:59.799Z,65
2017-11-28T13:32:59.533Z,65
2017-11-28T13:33:59.554Z,65
2017-11-28T13:34:59.305Z,65
2017-11-28T13:35:59.582Z,70
2017-11-28T13:36:59.855Z,70
2017-11-28T13:37:59.631Z,70
2017-11-28T13:38:59.112Z,70
2017-11-28T13:39:59.409Z,70
2017-11-28T13:40:59.674Z,75
2017-11-28T13:41:59.965Z,75
2017-11-28T13:42:59.950Z,75
2017-11-28T13:43:59.736Z,75
2017-11-28T13:44:59.994Z,75
2017-11-28T13:45:59.751Z,75
2017-11-28T13:47:00.084Z,75
2017-11-28T13:48:00.047Z,75
2017-11-28T13:48:59.806Z,75
2017-11-28T13:50:00.106Z,75
2017-11-28T13:51:00.101Z,70
2017-11-28T13:51:59.613Z,70
2017-11-28T13:52:59.605Z,65
2017-11-28T13:53:59.900Z,65
2017-11-28T13:54:59.905Z,65
2017-11-28T13:56:00.190Z,65
2017-11-28T13:56:59.673Z,65
2017-11-28T13:57:59.697Z,65
2017-11-28T13:59:00.247Z,65
2017-11-28T14:00:00.246Z,60
2017-11-28T14:01:00.212Z,60
2017-11-28T14:02:00.183Z,60
2017-11-28T14:03:00.028Z,55
2017-11-28T14:04:00.320Z,55
2017-11-28T14:05:00.069Z,50
2017-11-28T14:05:59.821Z,50
2017-11-28T14:07:00.409Z,55
2017-11-28T14:08:00.385Z,55
2017-11-28T14:08:59.879Z,55
2017-11-28T14:10:00.404Z,60
2017-11-28T14:11:00.162Z,55
2017-11-28T14:12:00.187Z,55
2017-11-28T14:12:59.938Z,50
2017-11-28T14:14:00.219Z,45
2017-11-28T14:15:00.486Z,40
2017-11-28T14:16:00.246Z,35
2017-11-28T14:17:00.051Z,35
2017-11-28T14:18:00.302Z,30
2017-11-28T14:19:00.569Z,30
2017-11-28T14:20:00.338Z,30